^^
Station Historical Data
Daily Summary for June 13, 2018 Units:  Metric    English   Both
« Previous Day
Next Day »
Daily Weekly Monthly Yearly Custom
  High: Low: Average:
Temperature: -17.8 °C 16.3 °C 19.3 °C
Dew Point: -17.8 °C 11.6 °C 15.6 °C
Humidity: Humidity % 60 % 80 %
Wind Speed: 0 km/h 0 km/h 0.6 km/h
Wind Gust: 0 km/h - -
Wind:- - WNW
Pressure: 0 hPa 997.9 hPa -
Precipitation: 12.19 mm    
Historical Graphs
 
 
Tabular Data for June 13, 2018
Time Temperature Dew Point Pressure Wind Wind Speed Wind Gust Humidity Rainfall Rate (Hourly) solar Conditions
-17.8 °C -17.8 °C 0 hPa Calm     Humidity % 0 mm SoftwareType W/m2 Conditions
00:00 19.8 °C 11.8 °C 1009 hPa Calm   16.1 km/h 60 % 0 mm WeatherDisplay:10.37 W/m2 FEW
00:05 19.8 °C 12.1 °C 1009 hPa NW 1.6 km/h 11.3 km/h 61 % 0 mm WeatherDisplay:10.37 W/m2 FEW
00:10 19.7 °C 11.9 °C 1009 hPa WNW 1.6 km/h 6.4 km/h 61 % 0 mm WeatherDisplay:10.37 W/m2 FEW
00:15 19.6 °C 11.9 °C 1009 hPa West 1.6 km/h 14.5 km/h 61 % 0 mm WeatherDisplay:10.37 W/m2 FEW
00:20 19.5 °C 12 °C 1009 hPa Calm   6.4 km/h 62 % 0 mm WeatherDisplay:10.37 W/m2 FEW
00:25 19.4 °C 11.9 °C 1009 hPa Calm   8 km/h 62 % 0 mm WeatherDisplay:10.37 W/m2 FEW
00:30 19.3 °C 12.1 °C 1009 hPa Calm   4.8 km/h 63 % 0 mm WeatherDisplay:10.37 W/m2 FEW
00:35 19.2 °C 12 °C 1009 hPa WNW 1.6 km/h 9.7 km/h 63 % 0 mm WeatherDisplay:10.37 W/m2 FEW
00:40 19.2 °C 11.9 °C 1009 hPa WNW 1.6 km/h 9.7 km/h 63 % 0 mm WeatherDisplay:10.37 W/m2 FEW
00:45 19.1 °C 12.1 °C 1009 hPa Calm   8 km/h 64 % 0 mm WeatherDisplay:10.37 W/m2 FEW
00:50 19 °C 12.1 °C 1009 hPa NW 3.2 km/h 12.9 km/h 64 % 0 mm WeatherDisplay:10.37 W/m2 FEW
00:55 18.9 °C 12 °C 1009 hPa Calm   6.4 km/h 64 % 0 mm WeatherDisplay:10.37 W/m2 FEW
01:00 18.9 °C 12.2 °C 1009 hPa Calm   6.4 km/h 65 % 0 mm WeatherDisplay:10.37 W/m2 FEW
01:05 18.8 °C 12.1 °C 1009 hPa Calm   9.7 km/h 65 % 0 mm WeatherDisplay:10.37 W/m2 FEW
01:10 18.8 °C 12.1 °C 1009 hPa Calm   4.8 km/h 65 % 0 mm WeatherDisplay:10.37 W/m2 FEW
01:15 18.7 °C 12 °C 1008.7 hPa NW 1.6 km/h 8 km/h 65 % 0 mm WeatherDisplay:10.37 W/m2 FEW
01:20 18.7 °C 12.2 °C 1009 hPa WNW 1.6 km/h 8 km/h 66 % 0 mm WeatherDisplay:10.37 W/m2 FEW
01:25 18.6 °C 12.1 °C 1009 hPa NW 1.6 km/h 12.9 km/h 66 % 0 mm WeatherDisplay:10.37 W/m2 FEW
01:30 18.5 °C 12.1 °C 1009 hPa NW 1.6 km/h 12.9 km/h 66 % 0 mm WeatherDisplay:10.37 W/m2 FEW
01:35 18.4 °C 12 °C 1009 hPa NW 3.2 km/h 9.7 km/h 66 % 0 mm WeatherDisplay:10.37 W/m2 FEW
01:40 18.4 °C 12 °C 1008.7 hPa NW 1.6 km/h 8 km/h 66 % 0 mm WeatherDisplay:10.37 W/m2 FEW
01:45 18.4 °C 11.9 °C 1008.7 hPa NW 1.6 km/h 6.4 km/h 66 % 0 mm WeatherDisplay:10.37 W/m2 FEW
01:50 18.4 °C 11.9 °C 1008.7 hPa NNW 1.6 km/h 6.4 km/h 66 % 0 mm WeatherDisplay:10.37 W/m2 FEW
01:55 18.4 °C 11.9 °C 1008.7 hPa NNW 1.6 km/h 11.3 km/h 66 % 0 mm WeatherDisplay:10.37 W/m2 FEW
02:00 18.3 °C 11.9 °C 1008.7 hPa NW 3.2 km/h 9.7 km/h 66 % 0 mm WeatherDisplay:10.37 W/m2 FEW
02:05 18.3 °C 12.1 °C 1008.7 hPa Calm   8 km/h 67 % 0 mm WeatherDisplay:10.37 W/m2 FEW
02:10 18.3 °C 12.1 °C 1008.7 hPa NW 1.6 km/h 11.3 km/h 67 % 0 mm WeatherDisplay:10.37 W/m2 FEW
02:15 18.3 °C 12.1 °C 1008.7 hPa NW 1.6 km/h 6.4 km/h 67 % 0 mm WeatherDisplay:10.37 W/m2 FEW
02:20 18.3 °C 12.1 °C 1008.7 hPa Calm   6.4 km/h 67 % 0 mm WeatherDisplay:10.37 W/m2 FEW
02:25 18.3 °C 12 °C 1008.7 hPa West 1.6 km/h 8 km/h 67 % 0 mm WeatherDisplay:10.37 W/m2 FEW
02:30 18.2 °C 12.2 °C 1008.7 hPa WNW 1.6 km/h 6.4 km/h 68 % 0 mm WeatherDisplay:10.37 W/m2 FEW
02:35 18.2 °C 11.9 °C 1008.7 hPa Calm   6.4 km/h 67 % 0 mm WeatherDisplay:10.37 W/m2 FEW
02:40 18.1 °C 12.1 °C 1008.7 hPa Calm   4.8 km/h 68 % 0 mm WeatherDisplay:10.37 W/m2 FEW
02:45 18.1 °C 12.1 °C 1008.7 hPa NW 1.6 km/h 9.7 km/h 68 % 0 mm WeatherDisplay:10.37 W/m2 FEW
02:50 17.9 °C 11.9 °C 1008.7 hPa Calm   4.8 km/h 68 % 0 mm WeatherDisplay:10.37 W/m2 FEW
02:55 17.9 °C 11.9 °C 1008.7 hPa Calm   4.8 km/h 68 % 0 mm WeatherDisplay:10.37 W/m2 FEW
03:00 17.8 °C 11.8 °C 1008.4 hPa Calm   3.2 km/h 68 % 0 mm WeatherDisplay:10.37 W/m2 FEW
03:05 17.7 °C 11.9 °C 1008.4 hPa Calm     69 % 0 mm WeatherDisplay:10.37 W/m2 FEW
03:10 17.6 °C 11.8 °C 1008.7 hPa Calm   1.6 km/h 69 % 0 mm WeatherDisplay:10.37 W/m2 FEW
03:15 17.4 °C 11.9 °C 1008.7 hPa Calm     70 % 0 mm WeatherDisplay:10.37 W/m2 FEW
03:20 17.3 °C 11.8 °C 1008.7 hPa Calm   3.2 km/h 70 % 0 mm WeatherDisplay:10.37 W/m2 FEW
03:25 17.2 °C 11.8 °C 1008.7 hPa Calm   1.6 km/h 71 % 0 mm WeatherDisplay:10.37 W/m2 FEW
03:30 17 °C 11.7 °C 1008.7 hPa Calm     71 % 0 mm WeatherDisplay:10.37 W/m2 FEW
03:35 16.9 °C 11.8 °C 1008.7 hPa Calm   4.8 km/h 72 % 0 mm WeatherDisplay:10.37 W/m2 FEW
03:40 16.7 °C 11.7 °C 1008.7 hPa Calm   4.8 km/h 72 % 0 mm WeatherDisplay:10.37 W/m2 FEW
03:45 16.7 °C 11.6 °C 1008.4 hPa Calm   4.8 km/h 72 % 0 mm WeatherDisplay:10.37 W/m2 FEW
03:50 16.6 °C 11.7 °C 1008.4 hPa WNW 1.6 km/h 11.3 km/h 73 % 0 mm WeatherDisplay:10.37 W/m2 FEW
03:55 16.4 °C 11.6 °C 1008.4 hPa Calm   6.4 km/h 73 % 0 mm WeatherDisplay:10.37 W/m2 FEW
04:00 16.4 °C 11.7 °C 1008.4 hPa Calm   4.8 km/h 74 % 0 mm WeatherDisplay:10.37 W/m2 FEW
04:05 16.3 °C 11.7 °C 1008.4 hPa Calm   4.8 km/h 74 % 0 mm WeatherDisplay:10.37 W/m2 FEW
04:10 16.3 °C 11.8 °C 1008.4 hPa NW 3.2 km/h 9.7 km/h 75 % 0 mm WeatherDisplay:10.37 W/m2 FEW
04:15 16.3 °C 11.8 °C 1008.4 hPa WNW 1.6 km/h 8 km/h 75 % 0 mm WeatherDisplay:10.37 W/m2 FEW
04:20 16.3 °C 11.8 °C 1008.4 hPa WNW 1.6 km/h 8 km/h 75 % 0 mm WeatherDisplay:10.37 W/m2 FEW
04:25 16.3 °C 11.8 °C 1008.4 hPa NW 1.6 km/h 8 km/h 75 % 0 mm WeatherDisplay:10.37 W/m2 FEW
04:30 16.3 °C 12.1 °C 1008.4 hPa NW 3.2 km/h 11.3 km/h 76 % 0 mm WeatherDisplay:10.37 W/m2 FEW
04:35 16.3 °C 12.1 °C 1008 hPa WNW 1.6 km/h 11.3 km/h 76 % 0 mm WeatherDisplay:10.37 W/m2 FEW
04:40 16.4 °C 12.1 °C 1008.4 hPa WNW 1.6 km/h 12.9 km/h 76 % 0 mm WeatherDisplay:10.37 W/m2 FEW
04:45 16.4 °C 12.2 °C 1008 hPa NW 1.6 km/h 9.7 km/h 76 % 0 mm WeatherDisplay:10.37 W/m2 FEW
04:50 16.4 °C 12.2 °C 1008 hPa NW 1.6 km/h 9.7 km/h 76 % 0 mm WeatherDisplay:10.37 W/m2 FEW
04:55 16.5 °C 12.2 °C 1008 hPa NW 1.6 km/h 8 km/h 76 % 0 mm WeatherDisplay:10.37 W/m2 FEW
05:00 16.5 °C 12.3 °C 1008 hPa Calm   1.6 km/h 76 % 0 mm WeatherDisplay:10.37 W/m2 FEW
05:05 16.5 °C 12.3 °C 1008 hPa Calm   8 km/h 76 % 0 mm WeatherDisplay:10.37 W/m2 FEW
05:35 16.7 °C 12.7 °C 1008 hPa WNW 1.6 km/h 11.3 km/h 77 % 0 mm WeatherDisplay:10.37 W/m2 FEW
05:40 16.7 °C 12.7 °C 1008 hPa Calm   9.7 km/h 77 % 0 mm WeatherDisplay:10.37 W/m2 FEW
05:45 16.7 °C 12.7 °C 1008 hPa WNW 1.6 km/h 11.3 km/h 77 % 0 mm WeatherDisplay:10.37 W/m2 FEW
05:50 16.8 °C 12.7 °C 1008 hPa WNW 1.6 km/h 9.7 km/h 77 % 0 mm WeatherDisplay:10.37 W/m2 FEW
05:55 16.8 °C 12.7 °C 1008 hPa NW 3.2 km/h 12.9 km/h 77 % 0 mm WeatherDisplay:10.37 W/m2 FEW
06:00 16.8 °C 13 °C 1007.7 hPa NW 3.2 km/h 11.3 km/h 78 % 0 mm WeatherDisplay:10.37 W/m2 FEW
06:05 16.9 °C 13 °C 1007.7 hPa Calm   11.3 km/h 78 % 0 mm WeatherDisplay:10.37 W/m2 FEW
06:10 16.9 °C 13.1 °C 1007.7 hPa NW 3.2 km/h 12.9 km/h 78 % 0 mm WeatherDisplay:10.37 W/m2 FEW
06:15 16.9 °C 13.1 °C 1007.7 hPa Calm   11.3 km/h 78 % 0 mm WeatherDisplay:10.37 W/m2 FEW
06:20 17 °C 13.1 °C 1007.7 hPa Calm   9.7 km/h 78 % 0 mm WeatherDisplay:10.37 W/m2 FEW
06:25 17.1 °C 13.2 °C 1007.7 hPa NW 1.6 km/h 8 km/h 78 % 0 mm WeatherDisplay:10.37 W/m2 FEW
06:30 17.1 °C 13.2 °C 1007.7 hPa Calm   6.4 km/h 78 % 0 mm WeatherDisplay:10.37 W/m2 FEW
06:35 17.1 °C 13.2 °C 1007.7 hPa WNW 1.6 km/h 12.9 km/h 78 % 0 mm WeatherDisplay:10.37 W/m2 FEW
06:40 17.1 °C 13.2 °C 1007.7 hPa West 1.6 km/h 11.3 km/h 78 % 0 mm WeatherDisplay:10.37 W/m2 FEW
06:45 17.2 °C 13.3 °C 1007.7 hPa Calm   8 km/h 78 % 0 mm WeatherDisplay:10.37 W/m2 FEW
06:50 17.2 °C 13.6 °C 1008 hPa Calm   14.5 km/h 79 % 0 mm WeatherDisplay:10.37 W/m2 FEW
06:55 17.3 °C 13.6 °C 1007.7 hPa NW 1.6 km/h 9.7 km/h 79 % 0 mm WeatherDisplay:10.37 W/m2 FEW
07:00 17.3 °C 13.7 °C 1007.7 hPa WNW 1.6 km/h 9.7 km/h 79 % 0 mm WeatherDisplay:10.37 W/m2 FEW
07:05 17.4 °C 13.8 °C 1007.7 hPa WNW 1.6 km/h 12.9 km/h 79 % 0 mm WeatherDisplay:10.37 W/m2 FEW
07:10 17.5 °C 13.8 °C 1007.7 hPa NNW 3.2 km/h 14.5 km/h 79 % 0 mm WeatherDisplay:10.37 W/m2 FEW
07:15 17.6 °C 13.9 °C 1007.7 hPa WNW 1.6 km/h 11.3 km/h 79 % 0 mm WeatherDisplay:10.37 W/m2 FEW
07:20 17.8 °C 13.9 °C 1007.7 hPa WNW 1.6 km/h 14.5 km/h 78 % 0 mm WeatherDisplay:10.37 W/m2 FEW
07:25 17.9 °C 14.1 °C 1007.7 hPa WNW 3.2 km/h 11.3 km/h 78 % 0 mm WeatherDisplay:10.37 W/m2 FEW
07:30 18.1 °C 14.2 °C 1007.7 hPa WNW 1.6 km/h 11.3 km/h 78 % 0 mm WeatherDisplay:10.37 W/m2 FEW
07:35 18.3 °C 14.2 °C 1007.7 hPa NW 3.2 km/h 16.1 km/h 77 % 0 mm WeatherDisplay:10.37 W/m2 FEW
07:40 18.4 °C 14.3 °C 1007.7 hPa NW 4.8 km/h 20.9 km/h 77 % 0 mm WeatherDisplay:10.37 W/m2 FEW
07:45 18.7 °C 14.6 °C 1007.7 hPa WNW 1.6 km/h 16.1 km/h 77 % 0 mm WeatherDisplay:10.37 W/m2 FEW
07:50 18.8 °C 14.6 °C 1007.7 hPa NW 1.6 km/h 14.5 km/h 76 % 0 mm WeatherDisplay:10.37 W/m2 FEW
07:55 19.1 °C 14.5 °C 1007.7 hPa NW 8 km/h 19.3 km/h 75 % 0 mm WeatherDisplay:10.37 W/m2 FEW
08:00 19.2 °C 14.7 °C 1007.3 hPa NW 3.2 km/h 19.3 km/h 75 % 0 mm WeatherDisplay:10.37 W/m2 FEW
08:05 19.4 °C 14.9 °C 1007.3 hPa Calm   16.1 km/h 75 % 0 mm WeatherDisplay:10.37 W/m2 FEW
08:10 19.6 °C 15.1 °C 1007.3 hPa NW 1.6 km/h 11.3 km/h 75 % 0 mm WeatherDisplay:10.37 W/m2 FEW
08:15 19.8 °C 15.1 °C 1007.3 hPa NW 3.2 km/h 12.9 km/h 74 % 0 mm WeatherDisplay:10.37 W/m2 FEW
08:20 20 °C 15 °C 1007.3 hPa NW 1.6 km/h 11.3 km/h 73 % 0 mm WeatherDisplay:10.37 W/m2 FEW
08:25 20.2 °C 15.2 °C 1007.3 hPa NW 3.2 km/h 12.9 km/h 73 % 0 mm WeatherDisplay:10.37 W/m2 FEW
08:30 20.3 °C 15.3 °C 1007 hPa Calm   8 km/h 73 % 0 mm WeatherDisplay:10.37 W/m2 FEW
08:35 20.5 °C 15.5 °C 1007 hPa NW 1.6 km/h 8 km/h 73 % 0 mm WeatherDisplay:10.37 W/m2 FEW
08:40 20.7 °C 15.5 °C 1007.3 hPa WNW 1.6 km/h 11.3 km/h 72 % 0 mm WeatherDisplay:10.37 W/m2 FEW
08:45 20.9 °C 15.7 °C 1007 hPa West 3.2 km/h 9.7 km/h 72 % 0 mm WeatherDisplay:10.37 W/m2 FEW
08:50 21.1 °C 15.7 °C 1007 hPa WNW 1.6 km/h 9.7 km/h 71 % 0 mm WeatherDisplay:10.37 W/m2 FEW
08:55 21.3 °C 15.8 °C 1007 hPa NW 1.6 km/h 6.4 km/h 71 % 0 mm WeatherDisplay:10.37 W/m2 FEW
09:00 21.4 °C 15.9 °C 1007 hPa Calm   4.8 km/h 71 % 0 mm WeatherDisplay:10.37 W/m2 FEW
09:05 21.6 °C 15.9 °C 1007 hPa WNW 1.6 km/h 11.3 km/h 70 % 0 mm WeatherDisplay:10.37 W/m2 FEW
09:10 21.8 °C 16.1 °C 1007 hPa WNW 1.6 km/h 11.3 km/h 70 % 0 mm WeatherDisplay:10.37 W/m2 FEW
09:15 21.9 °C 16 °C 1007 hPa West 1.6 km/h 11.3 km/h 69 % 0 mm WeatherDisplay:10.37 W/m2 FEW
09:20 22.2 °C 16.2 °C 1007 hPa Calm   9.7 km/h 69 % 0 mm WeatherDisplay:10.37 W/m2 FEW
09:25 22.4 °C 16.6 °C 1007.3 hPa Calm   14.5 km/h 70 % 0 mm WeatherDisplay:10.37 W/m2 FEW
09:30 22.5 °C 15.8 °C 1007 hPa WNW 3.2 km/h 14.5 km/h 66 % 0 mm WeatherDisplay:10.37 W/m2 FEW
09:35 22.7 °C 16 °C 1007 hPa West 1.6 km/h 14.5 km/h 66 % 0 mm WeatherDisplay:10.37 W/m2 FEW
09:40 22.8 °C 16.3 °C 1007 hPa West 1.6 km/h 6.4 km/h 67 % 0 mm WeatherDisplay:10.37 W/m2 FEW
09:45 22.9 °C 16.3 °C 1007 hPa Calm   6.4 km/h 66 % 0 mm WeatherDisplay:10.37 W/m2 FEW
09:50 23.2 °C 16.4 °C 1006.7 hPa Calm   4.8 km/h 66 % 0 mm WeatherDisplay:10.37 W/m2 FEW
09:55 23.4 °C 16.7 °C 1006.7 hPa West 1.6 km/h 8 km/h 66 % 0 mm WeatherDisplay:10.37 W/m2 FEW
10:00 23.6 °C 16.9 °C 1006.7 hPa Calm   8 km/h 66 % 0 mm WeatherDisplay:10.37 W/m2 FEW
10:05 23.9 °C 16.9 °C 1006.3 hPa WNW 1.6 km/h 6.4 km/h 65 % 0 mm WeatherDisplay:10.37 W/m2 FEW
10:10 24.2 °C 17.2 °C 1006.3 hPa Calm   8 km/h 65 % 0 mm WeatherDisplay:10.37 W/m2 FEW
10:15 24.4 °C 16.9 °C 1006.3 hPa Calm   6.4 km/h 63 % 0 mm WeatherDisplay:10.37 W/m2 FEW
10:20 24.7 °C 17.2 °C 1006.3 hPa Calm   6.4 km/h 63 % 0 mm WeatherDisplay:10.37 W/m2 FEW
10:25 24.9 °C 17.2 °C 1006.3 hPa West 1.6 km/h 8 km/h 62 % 0 mm WeatherDisplay:10.37 W/m2 FEW
10:30 25.2 °C 17.1 °C 1006 hPa Calm   8 km/h 61 % 0 mm WeatherDisplay:10.37 W/m2 FEW
10:35 25.4 °C 17.1 °C 1006 hPa West 1.6 km/h 9.7 km/h 60 % 0 mm WeatherDisplay:10.37 W/m2 FEW
10:40 25.6 °C 17.2 °C 1006 hPa Calm   8 km/h 60 % 0 mm WeatherDisplay:10.37 W/m2 FEW
10:45 25.7 °C 17.3 °C 1006 hPa Calm   8 km/h 60 % 0 mm WeatherDisplay:10.37 W/m2 FEW
10:50 25.9 °C 17.8 °C 1006 hPa Calm   12.9 km/h 61 % 0 mm WeatherDisplay:10.37 W/m2 FEW
10:55 25.9 °C 17.6 °C 1006 hPa WNW 1.6 km/h 8 km/h 60 % 0 mm WeatherDisplay:10.37 W/m2 FEW
11:00 25.9 °C 17.6 °C 1006 hPa Calm   6.4 km/h 60 % 0 mm WeatherDisplay:10.37 W/m2 FEW
11:05 25.8 °C 17.7 °C 1006 hPa West 1.6 km/h 6.4 km/h 61 % 0 mm WeatherDisplay:10.37 W/m2 FEW
11:10 25.7 °C 17.9 °C 1006 hPa Calm   1.6 km/h 62 % 0 mm WeatherDisplay:10.37 W/m2 FEW
11:15 25.6 °C 17.4 °C 1006 hPa NW 1.6 km/h 11.3 km/h 61 % 0 mm WeatherDisplay:10.37 W/m2 FEW
11:20 25.3 °C 17.6 °C 1006 hPa Calm   12.9 km/h 62 % 0 mm WeatherDisplay:10.37 W/m2 FEW
11:25 25.1 °C 17.3 °C 1006 hPa Calm   6.4 km/h 62 % 0 mm WeatherDisplay:10.37 W/m2 FEW
11:30 25 °C 17.4 °C 1005.6 hPa Calm   9.7 km/h 63 % 0 mm WeatherDisplay:10.37 W/m2 FEW
11:35 24.8 °C 17.5 °C 1006 hPa Calm   3.2 km/h 64 % 0 mm WeatherDisplay:10.37 W/m2 FEW
11:40 24.6 °C 17.3 °C 1005.6 hPa NW 1.6 km/h 9.7 km/h 64 % 0 mm WeatherDisplay:10.37 W/m2 FEW
11:45 24.4 °C 17.4 °C 1005.6 hPa Calm   4.8 km/h 65 % 0 mm WeatherDisplay:10.37 W/m2 FEW
11:50 24.2 °C 17.4 °C 1005.6 hPa Calm   6.4 km/h 66 % 0 mm WeatherDisplay:10.37 W/m2 FEW
11:55 24 °C 17.3 °C 1005.6 hPa WNW 1.6 km/h 12.9 km/h 66 % 0 mm WeatherDisplay:10.37 W/m2 FEW
12:00 23.8 °C 17.1 °C 1005.6 hPa Calm   6.4 km/h 66 % 0 mm WeatherDisplay:10.37 W/m2 FEW
12:05 23.6 °C 17.1 °C 1005.6 hPa WNW 1.6 km/h 8 km/h 67 % 0 mm WeatherDisplay:10.37 W/m2 FEW
12:10 23.4 °C 17.4 °C 1005.6 hPa Calm   3.2 km/h 69 % 0 mm WeatherDisplay:10.37 W/m2 FEW
12:15 23.3 °C 17.3 °C 1005.6 hPa Calm   8 km/h 69 % 0 mm WeatherDisplay:10.37 W/m2 FEW
12:20 23.1 °C 17.1 °C 1005.6 hPa West 1.6 km/h 8 km/h 69 % 0 mm WeatherDisplay:10.37 W/m2 FEW
12:25 23 °C 17 °C 1005.6 hPa WNW 1.6 km/h 8 km/h 69 % 0 mm WeatherDisplay:10.37 W/m2 FEW
12:30 22.8 °C 16.8 °C 1005.6 hPa NW 1.6 km/h 6.4 km/h 69 % 0 mm WeatherDisplay:10.37 W/m2 FEW
12:35 22.7 °C 16.9 °C 1005.3 hPa Calm   4.8 km/h 70 % 0 mm WeatherDisplay:10.37 W/m2 FEW
12:40 22.7 °C 17.3 °C 1005.6 hPa WNW 1.6 km/h 8 km/h 72 % 0 mm WeatherDisplay:10.37 W/m2 FEW
12:45 22.5 °C 17.2 °C 1005.3 hPa Calm   4.8 km/h 72 % 0 mm WeatherDisplay:10.37 W/m2 FEW
12:50 22.3 °C 17.2 °C 1005.3 hPa NW 1.6 km/h 6.4 km/h 73 % 0 mm WeatherDisplay:10.37 W/m2 FEW
12:55 22.2 °C 17.3 °C 1005.3 hPa Calm   4.8 km/h 74 % 0 mm WeatherDisplay:10.37 W/m2 FEW
13:00 22 °C 17.8 °C 1005.3 hPa NW 1.6 km/h 4.8 km/h 77 % 0 mm WeatherDisplay:10.37 W/m2 FEW
13:05 21.8 °C 17.8 °C 1005.3 hPa Calm   1.6 km/h 78 % 0.25 mm WeatherDisplay:10.37 W/m2 RA
13:10 21.7 °C 17.8 °C 1005.3 hPa Calm     79 % 0 mm WeatherDisplay:10.37 W/m2 RA
13:15 21.5 °C 17.9 °C 1005 hPa Calm     80 % 0 mm WeatherDisplay:10.37 W/m2 FEW
13:20 21.3 °C 17.9 °C 1005 hPa Calm     81 % 0 mm WeatherDisplay:10.37 W/m2 FEW
13:25 21.1 °C 17.9 °C 1005 hPa Calm     82 % 0 mm WeatherDisplay:10.37 W/m2 FEW
13:30 20.9 °C 17.9 °C 1005 hPa Calm     83 % 0 mm WeatherDisplay:10.37 W/m2 FEW
13:35 20.8 °C 17.8 °C 1005 hPa Calm     83 % 0 mm WeatherDisplay:10.37 W/m2 FEW
13:40 20.6 °C 17.8 °C 1005 hPa Calm   1.6 km/h 84 % 0 mm WeatherDisplay:10.37 W/m2 FEW
13:45 20.5 °C 17.9 °C 1005 hPa Calm   3.2 km/h 85 % 0 mm WeatherDisplay:10.37 W/m2 FEW
13:50 20.4 °C 17.8 °C 1005 hPa Calm   1.6 km/h 85 % 0 mm WeatherDisplay:10.37 W/m2 FEW
13:55 20.3 °C 17.8 °C 1005 hPa Calm   3.2 km/h 86 % 0 mm WeatherDisplay:10.37 W/m2 FEW
14:00 20.2 °C 17.7 °C 1005 hPa Calm   4.8 km/h 86 % 0 mm WeatherDisplay:10.37 W/m2 FEW
14:05 20.1 °C 17.8 °C 1004.6 hPa Calm   3.2 km/h 87 % 0 mm WeatherDisplay:10.37 W/m2 FEW
14:10 19.9 °C 17.7 °C 1004.3 hPa Calm   6.4 km/h 87 % 0 mm WeatherDisplay:10.37 W/m2 FEW
14:15 19.9 °C 17.8 °C 1004.3 hPa NW 1.6 km/h 6.4 km/h 88 % 0 mm WeatherDisplay:10.37 W/m2 FEW
14:20 19.8 °C 17.7 °C 1004.3 hPa NW 1.6 km/h 4.8 km/h 88 % 0 mm WeatherDisplay:10.37 W/m2 FEW
14:25 19.8 °C 17.9 °C 1003.9 hPa Calm     89 % 0 mm WeatherDisplay:10.37 W/m2 FEW
14:30 19.8 °C 17.9 °C 1003.9 hPa Calm   1.6 km/h 89 % 0 mm WeatherDisplay:10.37 W/m2 FEW
14:35 19.8 °C 17.9 °C 1003.9 hPa Calm     89 % 0 mm WeatherDisplay:10.37 W/m2 FEW
14:40 19.8 °C 18.2 °C 1003.6 hPa Calm     90 % 0 mm WeatherDisplay:10.37 W/m2 FEW
14:45 19.8 °C 18.2 °C 1003.6 hPa Calm     90 % 0 mm WeatherDisplay:10.37 W/m2 FEW
14:50 19.9 °C 18.2 °C 1003.6 hPa Calm   3.2 km/h 90 % 0 mm WeatherDisplay:10.37 W/m2 FEW
14:55 19.9 °C 18.2 °C 1003.6 hPa Calm   1.6 km/h 90 % 0 mm WeatherDisplay:10.37 W/m2 FEW
15:00 19.9 °C 18.2 °C 1003.6 hPa Calm     90 % 0 mm WeatherDisplay:10.37 W/m2 FEW
15:05 19.9 °C 18.1 °C 1003.3 hPa Calm   3.2 km/h 89 % 0 mm WeatherDisplay:10.37 W/m2 FEW
15:10 20 °C 18.1 °C 1003.3 hPa Calm     89 % 0 mm WeatherDisplay:10.37 W/m2 FEW
15:15 20 °C 18.1 °C 1003.3 hPa Calm     89 % 0 mm WeatherDisplay:10.37 W/m2 FEW
15:20 20 °C 18.1 °C 1003.3 hPa Calm     89 % 0 mm WeatherDisplay:10.37 W/m2 FEW
15:25 20 °C 18.1 °C 1002.9 hPa Calm     89 % 0 mm WeatherDisplay:10.37 W/m2 FEW
15:30 20 °C 18.1 °C 1002.9 hPa Calm     89 % 0 mm WeatherDisplay:10.37 W/m2 FEW
15:35 20 °C 18.1 °C 1002.9 hPa Calm     89 % 0 mm WeatherDisplay:10.37 W/m2 FEW
15:40 20 °C 18.1 °C 1002.9 hPa Calm     89 % 0 mm WeatherDisplay:10.37 W/m2 FEW
15:45 20 °C 17.9 °C 1002.9 hPa Calm     88 % 0 mm WeatherDisplay:10.37 W/m2 FEW
15:50 19.9 °C 17.9 °C 1002.6 hPa Calm     88 % 0 mm WeatherDisplay:10.37 W/m2 FEW
15:55 19.9 °C 17.9 °C 1002.6 hPa Calm     88 % 0 mm WeatherDisplay:10.37 W/m2 FEW
16:00 19.9 °C 17.7 °C 1002.6 hPa Calm     87 % 0 mm WeatherDisplay:10.37 W/m2 FEW
16:05 19.9 °C 17.7 °C 1002.6 hPa Calm     87 % 0 mm WeatherDisplay:10.37 W/m2 FEW
16:10 19.9 °C 17.7 °C 1002.3 hPa Calm     87 % 0 mm WeatherDisplay:10.37 W/m2 FEW
16:15 19.9 °C 17.7 °C 1002.3 hPa Calm     87 % 0 mm WeatherDisplay:10.37 W/m2 FEW
16:20 19.9 °C 17.7 °C 1002.3 hPa Calm     87 % 0 mm WeatherDisplay:10.37 W/m2 FEW
16:25 19.9 °C 17.7 °C 1002.3 hPa Calm     87 % 0 mm WeatherDisplay:10.37 W/m2 FEW
16:30 19.9 °C 17.7 °C 1002.3 hPa Calm   1.6 km/h 87 % 0.25 mm WeatherDisplay:10.37 W/m2 RA
16:35 19.8 °C 17.6 °C 1002.3 hPa Calm   1.6 km/h 87 % 0.25 mm WeatherDisplay:10.37 W/m2 RA
16:40 19.7 °C 17.5 °C 1002.3 hPa Calm   1.6 km/h 87 % 0 mm WeatherDisplay:10.37 W/m2 RA
16:45 19.7 °C 17.6 °C 1001.9 hPa Calm     88 % 0.25 mm WeatherDisplay:10.37 W/m2 RA
16:50 19.6 °C 17.6 °C 1001.9 hPa Calm     88 % 0 mm WeatherDisplay:10.37 W/m2 RA
16:55 19.6 °C 17.6 °C 1001.6 hPa Calm     88 % 0 mm WeatherDisplay:10.37 W/m2 FEW
17:00 19.6 °C 17.7 °C 1001.6 hPa Calm     89 % 0.25 mm WeatherDisplay:10.37 W/m2 RA
17:05 19.5 °C 17.6 °C 1001.6 hPa Calm     89 % 0 mm WeatherDisplay:10.37 W/m2 RA
17:10 19.5 °C 17.8 °C 1001.6 hPa Calm     90 % 0 mm WeatherDisplay:10.37 W/m2 FEW
17:15 19.4 °C 17.8 °C 1001.6 hPa Calm     90 % 0.25 mm WeatherDisplay:10.37 W/m2 RA
17:20 19.4 °C 17.7 °C 1001.6 hPa Calm     90 % 0 mm WeatherDisplay:10.37 W/m2 RA
17:25 19.3 °C 17.7 °C 1001.6 hPa Calm     90 % 0 mm WeatherDisplay:10.37 W/m2 FEW
17:30 19.3 °C 17.6 °C 1001.9 hPa Calm     90 % 0.25 mm WeatherDisplay:10.37 W/m2 RA
17:35 19.2 °C 17.6 °C 1001.9 hPa Calm     90 % 0 mm WeatherDisplay:10.37 W/m2 RA
17:40 19.2 °C 17.7 °C 1001.9 hPa Calm     91 % 0 mm WeatherDisplay:10.37 W/m2 FEW
17:45 19.2 °C 17.7 °C 1001.9 hPa Calm     91 % 0 mm WeatherDisplay:10.37 W/m2 FEW
17:50 19.1 °C 17.6 °C 1001.9 hPa Calm     91 % 0.25 mm WeatherDisplay:10.37 W/m2 RA
17:55 19.1 °C 17.6 °C 1001.6 hPa Calm     91 % 0 mm WeatherDisplay:10.37 W/m2 RA
18:00 19.1 °C 17.7 °C 1001.6 hPa Calm     92 % 0.25 mm WeatherDisplay:10.37 W/m2 RA
18:05 19 °C 17.7 °C 1001.2 hPa Calm     92 % 0.25 mm WeatherDisplay:10.37 W/m2 RA
18:10 18.9 °C 17.6 °C 1001.2 hPa Calm     92 % 0.25 mm WeatherDisplay:10.37 W/m2 RA
18:15 18.9 °C 17.6 °C 1000.9 hPa Calm     92 % 0.25 mm WeatherDisplay:10.37 W/m2 RA
18:20 18.9 °C 17.6 °C 1000.6 hPa Calm     92 % 0.51 mm WeatherDisplay:10.37 W/m2 RA
18:25 18.8 °C 17.5 °C 1000.6 hPa Calm     92 % 0 mm WeatherDisplay:10.37 W/m2 RA
18:30 18.8 °C 17.4 °C 1000.6 hPa Calm     92 % 0.25 mm WeatherDisplay:10.37 W/m2 RA
18:35 18.8 °C 17.6 °C 1000.2 hPa Calm     93 % 0.25 mm WeatherDisplay:10.37 W/m2 RA
18:40 18.7 °C 17.6 °C 1000.6 hPa Calm     93 % 0.25 mm WeatherDisplay:10.37 W/m2 RA
18:45 18.7 °C 17.6 °C 1000.2 hPa Calm     93 % 0 mm WeatherDisplay:10.37 W/m2 RA
18:50 18.7 °C 17.5 °C 1000.2 hPa Calm     93 % 0 mm WeatherDisplay:10.37 W/m2 FEW
18:55 18.7 °C 17.5 °C 1000.2 hPa Calm     93 % 0.25 mm WeatherDisplay:10.37 W/m2 RA
19:00 18.7 °C 17.5 °C 1000.2 hPa Calm   1.6 km/h 93 % 0 mm WeatherDisplay:10.37 W/m2 RA
19:05 18.7 °C 17.5 °C 1000.2 hPa Calm     93 % 0 mm WeatherDisplay:10.37 W/m2 FEW
19:10 18.7 °C 17.7 °C 1000.2 hPa Calm     94 % 0 mm WeatherDisplay:10.37 W/m2 FEW
19:15 18.6 °C 17.6 °C 999.9 hPa Calm     94 % 0.25 mm WeatherDisplay:10.37 W/m2 RA
19:20 18.6 °C 17.6 °C 999.9 hPa Calm   1.6 km/h 94 % 0 mm WeatherDisplay:10.37 W/m2 RA
19:25 18.6 °C 17.6 °C 999.5 hPa Calm     94 % 0.25 mm WeatherDisplay:10.37 W/m2 RA
19:30 18.6 °C 17.6 °C 999.9 hPa Calm     94 % 0 mm WeatherDisplay:10.37 W/m2 RA
19:35 18.6 °C 17.6 °C 1000.6 hPa NW 1.6 km/h 9.7 km/h 94 % 1.52 mm WeatherDisplay:10.37 W/m2 RA
19:40 18.6 °C 17.6 °C 1000.2 hPa Calm   9.7 km/h 94 % 1.52 mm WeatherDisplay:10.37 W/m2 RA
19:45 18.6 °C 17.6 °C 999.5 hPa Calm     94 % 1.27 mm WeatherDisplay:10.37 W/m2 RA
19:50 18.6 °C 17.6 °C 999.9 hPa Calm     94 % 1.02 mm WeatherDisplay:10.37 W/m2 RA
19:55 18.6 °C 17.7 °C 999.5 hPa Calm     95 % 1.02 mm WeatherDisplay:10.37 W/m2 RA
20:00 18.5 °C 17.7 °C 999.2 hPa Calm     95 % 0.51 mm WeatherDisplay:10.37 W/m2 RA
20:05 18.5 °C 17.5 °C 998.9 hPa Calm     94 % 0.51 mm WeatherDisplay:10.37 W/m2 RA
20:10 18.5 °C 17.7 °C 998.5 hPa Calm   1.6 km/h 95 % 0.51 mm WeatherDisplay:10.37 W/m2 RA
20:15 18.4 °C 17.6 °C 998.9 hPa Calm     95 % 0.51 mm WeatherDisplay:10.37 W/m2 RA
20:20 18.4 °C 17.6 °C 998.9 hPa Calm     95 % 0 mm WeatherDisplay:10.37 W/m2 RA
20:25 18.4 °C 17.6 °C 999.2 hPa Calm     95 % 0.25 mm WeatherDisplay:10.37 W/m2 RA
20:30 18.4 °C 17.6 °C 999.5 hPa Calm   1.6 km/h 95 % 0 mm WeatherDisplay:10.37 W/m2 RA
20:35 18.4 °C 17.6 °C 999.5 hPa Calm     95 % 0 mm WeatherDisplay:10.37 W/m2 FEW
20:40 18.4 °C 17.6 °C 999.2 hPa Calm     95 % 0 mm WeatherDisplay:10.37 W/m2 FEW
20:45 18.4 °C 17.6 °C 999.2 hPa Calm     95 % 0 mm WeatherDisplay:10.37 W/m2 FEW
20:50 18.4 °C 17.6 °C 998.5 hPa Calm   3.2 km/h 95 % 0 mm WeatherDisplay:10.37 W/m2 FEW
20:55 18.3 °C 17.6 °C 998.9 hPa Calm     95 % 0 mm WeatherDisplay:10.37 W/m2 FEW
21:00 18.3 °C 17.4 °C 999.2 hPa Calm     95 % 0 mm WeatherDisplay:10.37 W/m2 FEW
21:05 18.2 °C 17.4 °C 999.2 hPa Calm     95 % 0 mm WeatherDisplay:10.37 W/m2 FEW
21:10 18.2 °C 17.3 °C 999.2 hPa Calm     95 % 0 mm WeatherDisplay:10.37 W/m2 FEW
21:15 18.1 °C 17.3 °C 999.2 hPa Calm   4.8 km/h 95 % 0 mm WeatherDisplay:10.37 W/m2 FEW
21:20 18 °C 17.2 °C 999.2 hPa Calm     95 % 0 mm WeatherDisplay:10.37 W/m2 FEW
21:25 17.9 °C 17.1 °C 998.9 hPa Calm     95 % 0 mm WeatherDisplay:10.37 W/m2 FEW
21:30 17.9 °C 17.1 °C 999.2 hPa Calm     95 % 0 mm WeatherDisplay:10.37 W/m2 FEW
21:35 17.8 °C 17 °C 999.2 hPa Calm     95 % 0 mm WeatherDisplay:10.37 W/m2 FEW
21:40 17.8 °C 16.9 °C 998.9 hPa Calm     95 % 0 mm WeatherDisplay:10.37 W/m2 FEW
21:45 17.7 °C 16.9 °C 999.2 hPa Calm     95 % 0 mm WeatherDisplay:10.37 W/m2 FEW
21:50 17.7 °C 16.8 °C 999.2 hPa Calm     95 % 0 mm WeatherDisplay:10.37 W/m2 FEW
21:55 17.7 °C 16.8 °C 999.2 hPa Calm     95 % 0 mm WeatherDisplay:10.37 W/m2 FEW
22:00 17.6 °C 16.8 °C 999.2 hPa Calm     95 % 0 mm WeatherDisplay:10.37 W/m2 FEW
22:05 17.6 °C 16.7 °C 999.2 hPa Calm     95 % 0 mm WeatherDisplay:10.37 W/m2 FEW
22:10 17.6 °C 16.7 °C 999.2 hPa Calm     95 % 0 mm WeatherDisplay:10.37 W/m2 FEW
22:15 17.5 °C 16.7 °C 999.2 hPa Calm     95 % 0 mm WeatherDisplay:10.37 W/m2 FEW
22:20 17.5 °C 16.7 °C 999.2 hPa Calm     95 % 0 mm WeatherDisplay:10.37 W/m2 FEW
22:25 17.5 °C 16.7 °C 999.2 hPa Calm   3.2 km/h 95 % 0 mm WeatherDisplay:10.37 W/m2 FEW
22:30 17.4 °C 16.6 °C 998.9 hPa Calm   3.2 km/h 95 % 0 mm WeatherDisplay:10.37 W/m2 FEW
22:35 17.4 °C 16.6 °C 998.9 hPa WNW 1.6 km/h 6.4 km/h 95 % 0 mm WeatherDisplay:10.37 W/m2 FEW
22:40 17.4 °C 16.6 °C 998.5 hPa Calm     95 % 0 mm WeatherDisplay:10.37 W/m2 FEW
22:45 17.3 °C 16.5 °C 998.5 hPa Calm   3.2 km/h 95 % 0 mm WeatherDisplay:10.37 W/m2 FEW
22:50 17.3 °C 16.4 °C 998.9 hPa Calm     95 % 0 mm WeatherDisplay:10.37 W/m2 FEW
22:55 17.2 °C 16.4 °C 998.9 hPa Calm   3.2 km/h 95 % 0 mm WeatherDisplay:10.37 W/m2 FEW
23:00 17.1 °C 16.3 °C 998.5 hPa Calm   3.2 km/h 95 % 0 mm WeatherDisplay:10.37 W/m2 FEW
23:05 17.1 °C 16.2 °C 998.9 hPa Calm   6.4 km/h 95 % 0 mm WeatherDisplay:10.37 W/m2 FEW
23:10 17 °C 16.2 °C 998.5 hPa Calm   6.4 km/h 95 % 0 mm WeatherDisplay:10.37 W/m2 FEW
23:15 16.9 °C 16.1 °C 998.2 hPa Calm   4.8 km/h 95 % 0 mm WeatherDisplay:10.37 W/m2 FEW
23:20 16.9 °C 16.1 °C 998.2 hPa Calm   3.2 km/h 95 % 0 mm WeatherDisplay:10.37 W/m2 FEW
23:25 16.8 °C 16.1 °C 998.2 hPa Calm   6.4 km/h 95 % 0 mm WeatherDisplay:10.37 W/m2 FEW
23:30 16.8 °C 16.2 °C 998.2 hPa West 1.6 km/h 9.7 km/h 96 % 0 mm WeatherDisplay:10.37 W/m2 FEW
23:35 16.8 °C 16.1 °C 998.2 hPa WNW 1.6 km/h 9.7 km/h 96 % 0 mm WeatherDisplay:10.37 W/m2 FEW
23:40 16.8 °C 16.1 °C 998.2 hPa Calm   6.4 km/h 96 % 0 mm WeatherDisplay:10.37 W/m2 FEW
23:45 16.7 °C 16.1 °C 998.2 hPa Calm   6.4 km/h 96 % 0 mm WeatherDisplay:10.37 W/m2 FEW
23:50 16.7 °C 16.1 °C 997.9 hPa Calm   6.4 km/h 96 % 0 mm WeatherDisplay:10.37 W/m2 FEW
23:55 16.7 °C 16.1 °C 997.9 hPa Calm   4.8 km/h 96 % 0 mm WeatherDisplay:10.37 W/m2 FEW
Juneau County Weather
Compliments of Weather Underground - 3 mb